createdAt,value
2022-12-15T00:00:11.347Z,22.73
2022-12-15T00:02:56.726Z,23.67
2022-12-15T00:05:41.881Z,26.47
2022-12-15T00:08:28.987Z,23.83
2022-12-15T00:11:14.833Z,23.30
2022-12-15T00:13:59.869Z,22.30
2022-12-15T00:16:45.606Z,20.67
2022-12-15T00:19:31.028Z,21.50
2022-12-15T00:22:16.233Z,22.03
2022-12-15T00:25:01.551Z,22.87
2022-12-15T00:27:46.687Z,21.60
2022-12-15T00:30:31.916Z,20.97
2022-12-15T00:33:17.074Z,23.70
2022-12-15T00:36:02.165Z,21.23
2022-12-15T00:38:47.585Z,19.40
2022-12-15T00:41:18.644Z,24.37
2022-12-15T00:43:45.788Z,21.80
2022-12-15T00:46:31.457Z,21.90
2022-12-15T00:48:58.192Z,23.80
2022-12-15T00:51:44.366Z,21.97
2022-12-15T00:54:29.585Z,23.70
2022-12-15T00:57:15.116Z,19.37
2022-12-15T01:00:00.463Z,23.10
2022-12-15T01:02:46.126Z,24.90
2022-12-15T01:05:31.447Z,20.60
2022-12-15T01:08:18.727Z,23.87
2022-12-15T01:11:04.071Z,21.50
2022-12-15T01:13:49.598Z,23.40
2022-12-15T01:16:35.263Z,21.00
2022-12-15T01:19:22.545Z,20.57
2022-12-15T01:21:49.811Z,19.93
2022-12-15T01:24:16.544Z,19.67
2022-12-15T01:26:43.172Z,21.50
2022-12-15T01:29:09.777Z,18.73
2022-12-15T01:31:36.719Z,22.20
2022-12-15T01:34:03.379Z,20.73
2022-12-15T01:36:29.975Z,21.70
2022-12-15T01:38:56.777Z,21.07
2022-12-15T01:41:23.532Z,21.53
2022-12-15T01:43:50.805Z,21.63
2022-12-15T01:46:21.018Z,24.83
2022-12-15T01:48:54.797Z,21.37
2022-12-15T01:51:49.837Z,20.80
2022-12-15T01:54:21.392Z,22.63
2022-12-15T01:56:52.653Z,24.80
2022-12-15T01:59:23.796Z,22.33
2022-12-15T02:01:50.657Z,21.73
2022-12-15T02:04:20.676Z,22.70
2022-12-15T02:06:47.226Z,20.50
2022-12-15T02:09:14.947Z,21.33
2022-12-15T02:11:56.035Z,23.60
2022-12-15T02:14:59.900Z,19.13
2022-12-15T02:17:47.010Z,22.50
2022-12-15T02:20:41.893Z,21.10
2022-12-15T02:23:08.493Z,21.50
2022-12-15T02:25:54.504Z,22.07
2022-12-15T02:28:23.862Z,20.50
2022-12-15T02:31:18.736Z,20.77
2022-12-15T02:33:52.938Z,21.30
2022-12-15T02:36:29.827Z,21.70
2022-12-15T02:38:56.540Z,22.60
2022-12-15T02:41:40.726Z,20.10
2022-12-15T02:44:19.964Z,19.03
2022-12-15T02:47:04.874Z,21.80
2022-12-15T02:49:49.898Z,24.17
2022-12-15T02:52:35.330Z,23.27
2022-12-15T02:55:28.102Z,20.33
2022-12-15T02:58:01.942Z,23.87
2022-12-15T03:00:33.394Z,23.13
2022-12-15T03:03:00.312Z,25.67
2022-12-15T03:05:27.219Z,21.40
2022-12-15T03:07:54.617Z,24.90
2022-12-15T03:10:24.442Z,21.60
2022-12-15T03:12:51.699Z,23.80
2022-12-15T03:15:19.459Z,24.70
2022-12-15T03:17:46.239Z,22.23
2022-12-15T03:20:13.042Z,21.07
2022-12-15T03:22:40.174Z,25.87
2022-12-15T03:25:07.113Z,22.43
2022-12-15T03:27:35.302Z,21.13
2022-12-15T03:30:04.710Z,23.97
2022-12-15T03:32:31.865Z,25.87
2022-12-15T03:34:58.480Z,22.27
2022-12-15T03:37:25.155Z,24.23
2022-12-15T03:39:51.879Z,22.03
2022-12-15T03:42:38.491Z,22.57
2022-12-15T03:45:05.662Z,22.50
2022-12-15T03:47:32.336Z,23.40
2022-12-15T03:49:58.990Z,24.40
2022-12-15T03:52:25.654Z,23.17
2022-12-15T03:54:52.264Z,21.17
2022-12-15T03:57:18.888Z,25.77
2022-12-15T03:59:45.528Z,22.67
2022-12-15T04:02:12.285Z,22.80
2022-12-15T04:04:38.995Z,23.47
2022-12-15T04:07:05.657Z,24.47
2022-12-15T04:09:32.215Z,23.40
2022-12-15T04:11:58.864Z,22.70
2022-12-15T04:14:25.408Z,23.90
2022-12-15T04:16:52.037Z,24.30
2022-12-15T04:19:37.332Z,23.27
2022-12-15T04:22:04.155Z,23.63
2022-12-15T04:24:49.106Z,22.40
2022-12-15T04:27:34.144Z,22.70
2022-12-15T04:30:19.886Z,22.77
2022-12-15T04:33:05.019Z,25.80
2022-12-15T04:35:52.633Z,24.13
2022-12-15T04:38:45.480Z,23.57
2022-12-15T04:41:37.022Z,25.40
2022-12-15T04:44:22.838Z,21.43
2022-12-15T04:47:07.981Z,21.80
2022-12-15T04:49:53.192Z,23.97
2022-12-15T04:52:38.458Z,24.20
2022-12-15T04:55:24.142Z,22.50
2022-12-15T04:58:09.463Z,23.00
2022-12-15T05:00:55.237Z,24.63
2022-12-15T05:03:40.410Z,22.77
2022-12-15T05:06:25.541Z,22.07
2022-12-15T05:09:11.102Z,24.00
2022-12-15T05:11:56.820Z,24.00
2022-12-15T05:14:42.196Z,23.53
2022-12-15T05:17:27.632Z,23.20
2022-12-15T05:20:12.961Z,23.60
2022-12-15T05:22:57.836Z,22.80
2022-12-15T05:25:42.800Z,22.90
2022-12-15T05:28:27.583Z,22.90
2022-12-15T05:31:12.926Z,25.50
2022-12-15T05:33:39.743Z,23.77
2022-12-15T05:36:06.649Z,24.23
2022-12-15T05:38:33.395Z,22.77
2022-12-15T05:41:00.191Z,24.70
2022-12-15T05:43:28.259Z,23.90
2022-12-15T05:46:02.440Z,24.83
2022-12-15T05:48:29.044Z,23.57
2022-12-15T05:50:55.634Z,24.00
2022-12-15T05:53:22.260Z,23.93
2022-12-15T05:55:48.865Z,24.17
2022-12-15T05:58:15.480Z,22.63
2022-12-15T06:00:42.181Z,24.67
2022-12-15T06:03:08.873Z,30.23
2022-12-15T06:05:35.549Z,34.30
2022-12-15T06:08:02.139Z,24.60
2022-12-15T06:10:28.820Z,22.80
2022-12-15T06:12:55.411Z,22.73
2022-12-15T06:15:22.046Z,25.07
2022-12-15T06:17:49.713Z,23.27
2022-12-15T06:20:16.601Z,26.97
2022-12-15T06:22:48.163Z,22.33
2022-12-15T06:25:18.791Z,24.83
2022-12-15T06:27:45.404Z,21.27
2022-12-15T06:30:12.411Z,24.23
2022-12-15T06:32:39.044Z,23.80
2022-12-15T06:35:06.164Z,28.03
2022-12-15T06:37:32.820Z,25.73
2022-12-15T06:39:59.477Z,28.40
2022-12-15T06:42:26.099Z,26.60
2022-12-15T06:44:52.681Z,23.50
2022-12-15T06:47:19.312Z,23.53
2022-12-15T06:49:45.909Z,26.50
2022-12-15T06:52:12.560Z,23.83
2022-12-15T06:54:39.157Z,23.70
2022-12-15T06:57:05.741Z,22.80
2022-12-15T06:59:32.335Z,24.23
2022-12-15T07:02:00.543Z,26.60
2022-12-15T07:04:27.428Z,23.90
2022-12-15T07:06:54.111Z,25.83
2022-12-15T07:09:20.865Z,23.80
2022-12-15T07:11:50.303Z,26.63
2022-12-15T07:14:17.000Z,27.63
2022-12-15T07:16:43.662Z,29.57
2022-12-15T07:19:12.862Z,26.93
2022-12-15T07:21:39.753Z,26.90
2022-12-15T07:24:07.247Z,26.37
2022-12-15T07:26:34.412Z,30.40
2022-12-15T07:29:01.131Z,31.67
2022-12-15T07:31:27.842Z,31.87
2022-12-15T07:33:54.853Z,33.07
2022-12-15T07:36:22.082Z,36.20
2022-12-15T07:38:50.591Z,31.57
2022-12-15T07:41:19.070Z,29.00
2022-12-15T07:43:47.079Z,26.60
2022-12-15T07:46:14.110Z,25.30
2022-12-15T07:48:40.770Z,26.20
2022-12-15T07:51:13.837Z,28.30
2022-12-15T07:53:46.230Z,25.70
2022-12-15T07:56:12.836Z,26.07
2022-12-15T07:58:39.501Z,28.00
2022-12-15T08:01:08.741Z,26.90
2022-12-15T08:03:36.940Z,26.33
2022-12-15T08:06:08.635Z,27.93
2022-12-15T08:08:36.598Z,26.10
2022-12-15T08:11:12.360Z,26.20
2022-12-15T08:16:28.056Z,33.27
2022-12-15T08:18:57.128Z,39.43
2022-12-15T08:21:23.803Z,40.60
2022-12-15T08:23:50.752Z,39.67
2022-12-15T08:26:18.761Z,32.53
2022-12-15T08:28:46.232Z,30.47
2022-12-15T08:31:19.154Z,29.53
2022-12-15T08:33:47.099Z,31.03
2022-12-15T08:36:16.446Z,34.27
2022-12-15T08:38:44.828Z,29.70
2022-12-15T08:41:17.320Z,34.37
2022-12-15T08:43:48.537Z,36.00
2022-12-15T08:46:17.757Z,33.57
2022-12-15T08:48:45.768Z,30.27
2022-12-15T08:51:14.739Z,34.00
2022-12-15T08:53:41.366Z,28.00
2022-12-15T08:56:12.389Z,30.60
2022-12-15T08:58:40.192Z,31.17
2022-12-15T09:01:09.796Z,30.50
2022-12-15T09:03:37.098Z,30.60
2022-12-15T09:06:08.394Z,30.17
2022-12-15T09:08:35.295Z,27.50
2022-12-15T09:11:02.680Z,28.80
2022-12-15T09:13:30.015Z,28.17
2022-12-15T09:16:09.257Z,29.90
2022-12-15T09:18:36.747Z,30.70
2022-12-15T09:21:06.139Z,30.60
2022-12-15T09:23:33.892Z,31.77
2022-12-15T09:26:05.250Z,30.53
2022-12-15T09:28:32.450Z,30.90
2022-12-15T09:31:06.807Z,33.60
2022-12-15T09:33:34.212Z,32.73
2022-12-15T09:36:01.551Z,30.90
2022-12-15T09:38:28.206Z,30.60
2022-12-15T09:40:55.150Z,29.50
2022-12-15T09:43:37.158Z,29.30
2022-12-15T09:46:36.302Z,28.40
2022-12-15T09:49:11.436Z,28.10
2022-12-15T09:51:50.766Z,29.00
2022-12-15T09:54:17.689Z,36.10
2022-12-15T09:56:53.407Z,29.97
2022-12-15T09:59:35.693Z,23.57
2022-12-15T10:02:28.907Z,26.57
2022-12-15T10:08:42.914Z,25.80
2022-12-15T10:11:42.996Z,25.80
2022-12-15T10:14:15.763Z,28.90
2022-12-15T10:16:53.161Z,31.00
2022-12-15T10:19:34.135Z,28.03
2022-12-15T10:22:00.944Z,25.57
2022-12-15T10:25:08.591Z,26.90
2022-12-15T10:27:29.208Z,27.90
2022-12-15T10:30:01.680Z,26.10
2022-12-15T10:32:31.246Z,27.37
2022-12-15T10:34:57.977Z,27.30
2022-12-15T10:37:24.728Z,28.50
2022-12-15T10:39:51.576Z,26.90
2022-12-15T10:42:26.557Z,25.10
2022-12-15T10:44:58.167Z,24.50
2022-12-15T10:47:27.278Z,30.20
2022-12-15T10:49:55.705Z,28.30
2022-12-15T10:52:34.672Z,29.67
2022-12-15T10:55:01.557Z,26.53
2022-12-15T10:57:31.813Z,27.83
2022-12-15T11:00:25.036Z,27.93
2022-12-15T11:02:51.990Z,28.17
2022-12-15T11:05:19.005Z,28.47
2022-12-15T11:07:46.062Z,29.13
2022-12-15T11:10:16.991Z,26.90
2022-12-15T11:12:58.370Z,28.10
2022-12-15T11:15:31.415Z,27.17
2022-12-15T11:18:27.353Z,29.30
2022-12-15T11:21:09.921Z,25.47
2022-12-15T11:23:48.837Z,24.33
2022-12-15T11:26:55.213Z,25.97
2022-12-15T11:29:28.815Z,22.40
2022-12-15T11:31:58.924Z,25.80
2022-12-15T11:34:41.801Z,26.47
2022-12-15T11:37:24.149Z,26.40
2022-12-15T11:40:18.627Z,25.03
2022-12-15T11:43:11.094Z,27.00
2022-12-15T11:45:59.327Z,23.30
2022-12-15T11:49:08.147Z,25.70
2022-12-15T11:51:44.637Z,25.90
2022-12-15T11:54:29.802Z,24.97
2022-12-15T11:57:03.011Z,23.87
2022-12-15T11:59:49.479Z,24.97
2022-12-15T12:02:35.108Z,25.93
2022-12-15T12:05:20.250Z,25.23
2022-12-15T12:08:09.702Z,23.80
2022-12-15T12:10:51.940Z,24.50
2022-12-15T12:13:43.518Z,28.40
2022-12-15T12:16:32.103Z,28.07
2022-12-15T12:19:06.326Z,26.13
2022-12-15T12:21:51.172Z,26.97
2022-12-15T12:24:30.786Z,27.97
2022-12-15T12:27:02.730Z,24.93
2022-12-15T12:29:44.650Z,24.57
2022-12-15T12:32:30.651Z,25.57
2022-12-15T12:35:31.138Z,25.40
2022-12-15T12:38:05.250Z,25.70
2022-12-15T12:40:41.237Z,24.70
2022-12-15T12:43:20.313Z,25.63
2022-12-15T12:45:53.282Z,27.53
2022-12-15T12:48:36.341Z,28.30
2022-12-15T12:51:19.529Z,23.90
2022-12-15T12:53:46.158Z,26.50
2022-12-15T12:56:45.377Z,25.57
2022-12-15T12:59:30.435Z,28.53
2022-12-15T13:02:11.498Z,27.27
2022-12-15T13:04:40.621Z,26.93
2022-12-15T13:07:37.747Z,27.33
2022-12-15T13:10:21.136Z,25.73
2022-12-15T13:12:52.979Z,29.43
2022-12-15T13:15:29.374Z,27.00
2022-12-15T13:18:13.165Z,27.77
2022-12-15T13:20:40.607Z,25.07
2022-12-15T13:23:22.110Z,25.27
2022-12-15T13:25:57.508Z,26.00
2022-12-15T13:28:35.051Z,23.67
2022-12-15T13:31:23.129Z,25.80
2022-12-15T13:33:50.232Z,25.73
2022-12-15T13:36:42.230Z,25.60
2022-12-15T13:39:14.955Z,26.30
2022-12-15T13:42:07.502Z,27.00
2022-12-15T13:44:51.881Z,24.60
2022-12-15T13:47:18.657Z,24.50
2022-12-15T13:50:19.600Z,25.53
2022-12-15T13:55:39.265Z,25.77
2022-12-15T13:58:17.430Z,25.90
2022-12-15T14:00:56.275Z,26.70
2022-12-15T14:03:23.611Z,24.93
2022-12-15T14:05:56.251Z,26.13
2022-12-15T14:08:25.222Z,26.23
2022-12-15T14:10:55.246Z,25.03
2022-12-15T14:13:26.181Z,25.43
2022-12-15T14:16:21.501Z,23.80
2022-12-15T14:19:13.438Z,26.33
2022-12-15T14:21:40.345Z,25.27
2022-12-15T14:24:38.438Z,26.90
2022-12-15T14:27:06.449Z,25.73
2022-12-15T14:29:33.127Z,24.47
2022-12-15T14:32:00.625Z,26.53
2022-12-15T14:34:35.729Z,25.80
2022-12-15T14:37:07.776Z,23.50
2022-12-15T14:39:45.001Z,26.07
2022-12-15T14:42:18.607Z,26.10
2022-12-15T14:44:49.935Z,24.90
2022-12-15T14:47:35.355Z,24.20
2022-12-15T14:50:04.096Z,24.43
2022-12-15T14:52:41.963Z,28.10
2022-12-15T14:55:31.141Z,25.30
2022-12-15T14:57:58.424Z,25.77
2022-12-15T15:00:27.995Z,27.60
2022-12-15T15:03:10.627Z,22.87
2022-12-15T15:03:19.898Z,28.30
2022-12-15T15:05:51.659Z,25.27
2022-12-15T15:08:43.049Z,23.37
2022-12-15T15:11:39.558Z,25.60
2022-12-15T15:14:13.290Z,25.40
2022-12-15T15:16:40.427Z,26.97
2022-12-15T15:19:07.370Z,29.00
2022-12-15T15:21:37.433Z,31.30
2022-12-15T15:24:39.410Z,33.60
2022-12-15T15:27:28.600Z,28.50
2022-12-15T15:30:23.296Z,28.00
2022-12-15T15:33:02.075Z,33.27
2022-12-15T15:35:33.873Z,36.20
2022-12-15T15:38:32.378Z,36.27
2022-12-15T15:41:02.548Z,39.50
2022-12-15T15:43:29.442Z,42.60
2022-12-15T15:46:02.271Z,40.37
2022-12-15T15:48:34.204Z,38.67
2022-12-15T15:51:02.756Z,30.93
2022-12-15T15:53:35.509Z,35.03
2022-12-15T15:56:07.969Z,36.97
2022-12-15T15:58:36.192Z,35.00
2022-12-15T16:01:06.908Z,34.40
2022-12-15T16:03:38.518Z,33.23
2022-12-15T16:06:06.677Z,31.90
2022-12-15T16:08:36.397Z,32.40
2022-12-15T16:11:03.591Z,31.43
2022-12-15T16:13:30.250Z,29.33
2022-12-15T16:15:56.931Z,32.80
2022-12-15T16:18:24.262Z,34.40
2022-12-15T16:20:51.910Z,31.70
2022-12-15T16:23:26.405Z,31.13
2022-12-15T16:25:56.237Z,33.97
2022-12-15T16:28:25.806Z,32.43
2022-12-15T16:30:52.939Z,31.30
2022-12-15T16:33:20.035Z,33.93
2022-12-15T16:35:48.296Z,34.37
2022-12-15T16:38:26.869Z,37.97
2022-12-15T16:40:55.532Z,36.43
2022-12-15T16:43:26.167Z,36.60
2022-12-15T16:45:54.847Z,35.97
2022-12-15T16:48:22.048Z,40.93
2022-12-15T16:50:55.231Z,36.50
2022-12-15T16:53:34.460Z,39.20
2022-12-15T16:56:04.705Z,38.60
2022-12-15T16:58:34.288Z,40.27
2022-12-15T17:01:01.537Z,40.90
2022-12-15T17:03:28.394Z,38.10
2022-12-15T17:06:01.099Z,40.53
2022-12-15T17:08:33.637Z,37.27
2022-12-15T17:11:01.122Z,39.53
2022-12-15T17:13:45.591Z,42.13
2022-12-15T17:16:14.642Z,47.07
2022-12-15T17:18:42.939Z,41.17
2022-12-15T17:21:15.833Z,40.63
2022-12-15T17:23:48.013Z,38.10
2022-12-15T17:26:29.709Z,36.87
2022-12-15T17:29:00.966Z,40.30
2022-12-15T17:31:34.893Z,40.43
2022-12-15T17:34:28.583Z,54.27
2022-12-15T17:36:56.848Z,46.17
2022-12-15T17:39:23.642Z,36.00
2022-12-15T17:42:05.939Z,36.43
2022-12-15T17:44:37.284Z,38.93
2022-12-15T17:47:07.949Z,42.70
2022-12-15T17:49:37.580Z,40.17
2022-12-15T17:52:22.165Z,39.03
2022-12-15T17:54:49.282Z,39.53
2022-12-15T17:57:15.917Z,37.13
2022-12-15T17:59:42.741Z,38.43
2022-12-15T18:02:13.186Z,39.07
2022-12-15T18:04:40.972Z,40.10
2022-12-15T18:07:14.006Z,40.37
2022-12-15T18:09:41.518Z,39.33
2022-12-15T18:12:18.009Z,34.50
2022-12-15T18:14:44.717Z,39.20
2022-12-15T18:17:11.396Z,38.80
2022-12-15T18:19:38.047Z,32.53
2022-12-15T18:22:04.678Z,27.87
2022-12-15T18:24:31.292Z,34.60
2022-12-15T18:26:57.909Z,40.47
2022-12-15T18:29:24.597Z,44.40
2022-12-15T18:31:51.305Z,45.90
2022-12-15T18:34:21.159Z,43.47
2022-12-15T18:36:47.927Z,40.43
2022-12-15T18:39:26.217Z,30.97
2022-12-15T18:41:56.166Z,27.90
2022-12-15T18:44:27.715Z,23.07
2022-12-15T18:46:55.209Z,19.20
2022-12-15T18:49:22.774Z,20.20
2022-12-15T18:51:49.676Z,20.30
2022-12-15T18:54:19.788Z,20.37
2022-12-15T18:56:46.498Z,23.20
2022-12-15T18:59:17.524Z,24.40
2022-12-15T19:01:45.904Z,20.30
2022-12-15T19:04:12.903Z,20.60
2022-12-15T19:06:40.902Z,21.47
2022-12-15T19:09:17.546Z,25.70
2022-12-15T19:12:17.527Z,23.10
2022-12-15T19:14:47.039Z,22.37
2022-12-15T19:17:36.312Z,27.40
2022-12-15T19:20:35.020Z,22.60
2022-12-15T19:23:01.768Z,21.43
2022-12-15T19:25:29.557Z,22.13
2022-12-15T19:28:00.560Z,19.00
2022-12-15T19:30:30.406Z,19.60
2022-12-15T19:32:57.533Z,17.23
2022-12-15T19:35:25.113Z,17.23
2022-12-15T19:37:55.129Z,18.60
2022-12-15T19:40:30.828Z,17.33
2022-12-15T19:42:58.602Z,17.87
2022-12-15T19:45:27.726Z,16.23
2022-12-15T19:47:55.274Z,14.60
2022-12-15T19:50:25.017Z,13.97
2022-12-15T19:52:55.272Z,16.00
2022-12-15T19:55:28.254Z,16.47
2022-12-15T19:57:54.953Z,16.40
2022-12-15T20:00:22.770Z,15.37
2022-12-15T20:02:51.596Z,13.70
2022-12-15T20:05:19.570Z,16.20
2022-12-15T20:07:46.595Z,17.90
2022-12-15T20:10:31.372Z,17.67
2022-12-15T20:12:59.617Z,17.00
2022-12-15T20:15:26.556Z,14.27
2022-12-15T20:17:57.092Z,10.90
2022-12-15T20:20:26.808Z,10.93
2022-12-15T20:22:56.790Z,12.40
2022-12-15T20:25:29.653Z,13.80
2022-12-15T20:27:57.145Z,15.17
2022-12-15T20:30:27.062Z,13.60
2022-12-15T20:32:54.365Z,15.53
2022-12-15T20:35:22.397Z,15.73
2022-12-15T20:37:49.911Z,11.70
2022-12-15T20:40:21.964Z,13.27
2022-12-15T20:42:49.781Z,16.10
2022-12-15T20:45:18.247Z,13.50
2022-12-15T20:47:46.690Z,14.13
2022-12-15T20:50:41.124Z,14.77
2022-12-15T20:53:23.307Z,15.30
2022-12-15T20:55:51.601Z,12.40
2022-12-15T20:58:19.452Z,14.70
2022-12-15T21:00:48.499Z,13.13
2022-12-15T21:03:24.885Z,13.00
2022-12-15T21:05:55.329Z,14.27
2022-12-15T21:08:28.525Z,14.23
2022-12-15T21:11:01.405Z,12.90
2022-12-15T21:13:33.137Z,14.53
2022-12-15T21:16:00.314Z,13.90
2022-12-15T21:19:10.820Z,12.73
2022-12-15T21:21:18.861Z,14.23
2022-12-15T21:23:45.718Z,14.20
2022-12-15T21:26:13.686Z,13.70
2022-12-15T21:28:40.285Z,11.03
2022-12-15T21:31:07.102Z,17.07
2022-12-15T21:33:33.854Z,14.63
2022-12-15T21:36:00.576Z,14.03
2022-12-15T21:38:40.089Z,15.53
2022-12-15T21:41:13.913Z,15.60
2022-12-15T21:43:40.598Z,16.50
2022-12-15T21:46:16.083Z,14.00
2022-12-15T21:49:03.066Z,15.83
2022-12-15T21:51:34.727Z,15.07
2022-12-15T21:54:01.453Z,16.53
2022-12-15T21:56:28.282Z,13.70
2022-12-15T21:58:56.557Z,13.97
2022-12-15T22:01:27.586Z,14.23
2022-12-15T22:03:56.924Z,14.53
2022-12-15T22:06:29.553Z,16.47
2022-12-15T22:09:00.984Z,17.10
2022-12-15T22:11:30.208Z,17.50
2022-12-15T22:13:59.018Z,16.13
2022-12-15T22:16:25.824Z,15.10
2022-12-15T22:18:55.574Z,16.20
2022-12-15T22:21:23.828Z,16.07
2022-12-15T22:23:51.342Z,16.57
2022-12-15T22:26:22.260Z,16.00
2022-12-15T22:28:51.011Z,16.40
2022-12-15T22:31:18.728Z,19.33
2022-12-15T22:33:45.598Z,16.37
2022-12-15T22:36:12.317Z,16.80
2022-12-15T22:38:38.907Z,17.60
2022-12-15T22:41:06.914Z,19.87
2022-12-15T22:43:39.824Z,17.47
2022-12-15T22:46:10.473Z,17.70
2022-12-15T22:48:41.520Z,19.30
2022-12-15T22:51:12.987Z,18.40
2022-12-15T22:53:39.840Z,13.60
2022-12-15T22:56:15.749Z,18.63
2022-12-15T22:58:45.397Z,17.47
2022-12-15T23:01:12.735Z,16.13
2022-12-15T23:03:39.388Z,17.47
2022-12-15T23:06:06.326Z,16.00
2022-12-15T23:08:33.005Z,16.67
2022-12-15T23:11:18.299Z,16.03
2022-12-15T23:13:44.933Z,11.97
2022-12-15T23:16:21.531Z,16.80
2022-12-15T23:18:50.653Z,14.77
2022-12-15T23:21:19.178Z,17.30
2022-12-15T23:23:45.897Z,15.63
2022-12-15T23:26:13.694Z,14.70
2022-12-15T23:28:40.691Z,14.93
2022-12-15T23:31:08.227Z,13.90
2022-12-15T23:33:35.550Z,14.60
2022-12-15T23:36:03.180Z,15.33
2022-12-15T23:38:29.824Z,16.17
2022-12-15T23:40:57.856Z,15.00
2022-12-15T23:43:26.309Z,12.40
2022-12-15T23:45:58.654Z,14.00
2022-12-15T23:48:28.777Z,9.37
2022-12-15T23:50:55.361Z,14.20
2022-12-15T23:53:21.961Z,16.57
2022-12-15T23:55:48.599Z,14.00
2022-12-15T23:58:15.213Z,8.70
